Terminal Aerodrome Forecast
Issued by NWS Sioux Falls, SD

Home | Current Version | Previous Version | Text Only | Print | Product List | Glossary On
Versions: 1 2 3 4 5 6 7 8 9 10 11 12 13 14 15 16
000
FTUS43 KFSD 142323
TAFSUX
TAF
KSUX 142323Z 1500/1524 30013KT 2SM -SN OVC015
      TEMPO 1500/1502 4SM -SN
     FM150200 33016G24KT P6SM SCT018 OVC025
      TEMPO 1502/1504 4SM -SN BKN018
     FM150400 33020G30KT P6SM BKN035
     FM150700 33022G32KT P6SM SCT050
     FM151600 33020G30KT P6SM BKN030
     FM152300 33016G24KT P6SM BKN040=

USA.gov is the U.S. government's official web portal to all federal, state and local government web resources and services.